Time;durP1;ratioP1;P1;durP2;ratioP2;P2;SDS_P1;SDS_P2;PMS_P1;PMS_P2;Temp;Humidity;BMP_temperature;BMP_pressure;BME280_temperature;BME280_humidity;BME280_pressure;Samples;Min_cycle;Max_cycle;Signal;HPM_P1;HPM_P2
2021/09/24 00:00:04;;;;;;;4.22;2.20;;;17.20;94.40;;;;;;5055511;28;20056;-62
2021/09/24 00:02:30;;;;;;;5.00;2.05;;;17.20;94.40;;;;;;5053638;28;20051;-62
2021/09/24 00:04:55;;;;;;;3.55;1.92;;;17.10;94.40;;;;;;5050127;28;20528;-62
2021/09/24 00:07:21;;;;;;;6.15;2.10;;;17.10;94.50;;;;;;5036239;28;20021;-62
2021/09/24 00:09:46;;;;;;;6.40;2.15;;;17.00;94.50;;;;;;5053664;28;20473;-62
2021/09/24 00:12:12;;;;;;;4.70;2.17;;;17.00;94.60;;;;;;5053666;28;20029;-62
2021/09/24 00:14:37;;;;;;;5.63;1.67;;;17.00;94.60;;;;;;5051015;28;20374;-62
2021/09/24 00:17:03;;;;;;;3.78;1.75;;;17.00;94.90;;;;;;5053458;28;20033;-62
2021/09/24 00:19:29;;;;;;;4.00;2.30;;;17.00;94.60;;;;;;5050878;28;20468;-62
2021/09/24 00:21:54;;;;;;;5.32;2.08;;;17.00;94.50;;;;;;5053291;28;20477;-62
2021/09/24 00:24:20;;;;;;;4.82;1.60;;;16.90;94.50;;;;;;5050832;28;20437;-62
2021/09/24 00:26:45;;;;;;;3.95;2.00;;;16.90;94.50;;;;;;5052977;28;20569;-62
2021/09/24 00:29:11;;;;;;;5.53;1.58;;;16.90;94.50;;;;;;5055311;28;20496;-62
2021/09/24 00:31:36;;;;;;;3.45;1.65;;;16.90;94.60;;;;;;5053029;28;20024;-62
2021/09/24 00:34:02;;;;;;;5.93;1.77;;;16.90;94.50;;;;;;5052815;28;20096;-62
2021/09/24 00:36:27;;;;;;;4.30;1.75;;;16.80;94.50;;;;;;5060703;28;20017;-62
2021/09/24 00:38:53;;;;;;;6.85;2.92;;;16.80;94.60;;;;;;5051875;28;20029;-62
2021/09/24 00:41:18;;;;;;;4.15;2.47;;;16.70;94.70;;;;;;5055923;28;20028;-62
2021/09/24 00:43:44;;;;;;;9.23;2.50;;;16.60;94.80;;;;;;5054106;28;20430;-62
2021/09/24 00:46:09;;;;;;;6.13;2.08;;;16.60;95.00;;;;;;5036134;28;20473;-62
2021/09/24 00:48:35;;;;;;;5.72;1.88;;;16.60;95.00;;;;;;5052551;28;20404;-63
2021/09/24 00:51:00;;;;;;;5.45;1.77;;;16.60;95.00;;;;;;5051454;28;20029;-62
2021/09/24 00:53:26;;;;;;;4.68;2.42;;;16.60;95.10;;;;;;5053330;28;20024;-62
2021/09/24 00:55:52;;;;;;;5.93;2.42;;;16.60;95.20;;;;;;5058237;28;20683;-62
2021/09/24 00:58:17;;;;;;;3.75;2.13;;;16.50;95.30;;;;;;5051500;28;20017;-62
2021/09/24 01:00:43;;;;;;;6.80;2.03;;;16.50;95.30;;;;;;5054070;28;20021;-62
2021/09/24 01:03:09;;;;;;;10.38;3.45;;;16.50;95.30;;;;;;5048620;28;20057;-62
2021/09/24 01:05:35;;;;;;;5.75;2.05;;;16.40;95.60;;;;;;5052731;28;20029;-62
2021/09/24 01:08:01;;;;;;;5.68;2.33;;;16.40;95.60;;;;;;5049875;28;20029;-62
2021/09/24 01:10:27;;;;;;;9.55;2.33;;;16.40;95.70;;;;;;5052520;28;20025;-62
2021/09/24 01:12:53;;;;;;;6.30;2.00;;;16.40;95.70;;;;;;5052308;28;20029;-62
2021/09/24 01:15:19;;;;;;;4.95;1.80;;;16.40;95.80;;;;;;5049594;28;20066;-62
2021/09/24 01:17:47;;;;;;;3.63;1.85;;;16.40;95.70;;;;;;5052207;28;20087;-62
2021/09/24 01:20:16;;;;;;;5.55;1.83;;;16.40;95.70;;;;;;5052001;28;20035;-62
2021/09/24 01:22:41;;;;;;;6.68;2.17;;;16.40;95.70;;;;;;5057768;28;20108;-62
2021/09/24 01:25:08;;;;;;;6.32;1.80;;;16.40;95.70;;;;;;5052480;28;20547;-62
2021/09/24 01:27:34;;;;;;;4.10;1.40;;;16.40;95.70;;;;;;5049119;28;20406;-62
2021/09/24 01:30:01;;;;;;;3.50;1.63;;;16.50;95.70;;;;;;5048727;28;20028;-62
2021/09/24 01:32:26;;;;;;;5.32;1.80;;;16.50;95.60;;;;;;5034119;28;20021;-62
2021/09/24 01:34:52;;;;;;;5.38;1.63;;;16.50;95.60;;;;;;5054889;28;20382;-62
2021/09/24 01:37:18;;;;;;;4.95;1.70;;;16.50;95.60;;;;;;5043937;28;20088;-62
2021/09/24 01:39:43;;;;;;;4.43;1.60;;;16.50;95.60;;;;;;5052869;28;20071;-62
2021/09/24 01:42:09;;;;;;;6.70;2.10;;;16.40;95.60;;;;;;5049267;28;20362;-62
2021/09/24 01:44:35;;;;;;;6.45;2.15;;;16.40;95.70;;;;;;5051207;28;20380;-62
2021/09/24 01:47:00;;;;;;;4.25;1.55;;;16.40;95.70;;;;;;5047513;28;20028;-63
2021/09/24 01:49:26;;;;;;;7.75;2.05;;;16.40;95.80;;;;;;5052064;28;20032;-62
2021/09/24 01:51:52;;;;;;;3.88;1.80;;;16.30;95.80;;;;;;5048975;28;20037;-62
2021/09/24 01:54:20;;;;;;;5.20;1.95;;;16.30;95.90;;;;;;5052407;28;20047;-63
2021/09/24 01:56:46;;;;;;;6.10;2.53;;;16.30;95.90;;;;;;5053918;28;20009;-62
2021/09/24 01:59:12;;;;;;;4.05;1.30;;;16.30;95.90;;;;;;5039734;28;20105;-62
2021/09/24 02:01:38;;;;;;;5.90;1.55;;;16.40;95.90;;;;;;5052763;28;20027;-63
2021/09/24 02:04:04;;;;;;;5.68;1.77;;;16.40;95.90;;;;;;5051997;28;20025;-62
2021/09/24 02:06:29;;;;;;;4.32;1.60;;;16.40;95.80;;;;;;5057240;28;20029;-62
2021/09/24 02:08:55;;;;;;;4.90;1.70;;;16.40;95.80;;;;;;5053508;28;20480;-62
2021/09/24 02:11:21;;;;;;;3.85;1.30;;;16.40;95.70;;;;;;5052080;28;20094;-62
2021/09/24 02:13:46;;;;;;;9.15;2.10;;;16.30;95.70;;;;;;5036055;28;20489;-63
2021/09/24 02:16:12;;;;;;;5.03;2.00;;;16.30;95.80;;;;;;5045777;28;20059;-62
2021/09/24 02:18:41;;;;;;;4.65;1.52;;;16.30;95.90;;;;;;5051235;28;20025;-62
2021/09/24 02:21:07;;;;;;;5.55;2.00;;;16.30;95.90;;;;;;5049510;28;20075;-62
2021/09/24 02:23:32;;;;;;;3.10;1.77;;;16.30;96.00;;;;;;5033265;28;20078;-62
2021/09/24 02:25:58;;;;;;;3.53;1.73;;;16.20;96.00;;;;;;5030793;28;20022;-63
2021/09/24 02:28:24;;;;;;;3.72;1.98;;;16.20;96.10;;;;;;5049445;28;20107;-63
2021/09/24 02:30:51;;;;;;;6.90;2.72;;;16.20;96.20;;;;;;5053688;28;20028;-62
2021/09/24 02:33:16;;;;;;;7.25;3.05;;;16.10;96.30;;;;;;5053464;28;20020;-62
2021/09/24 02:35:42;;;;;;;4.35;3.03;;;16.10;96.30;;;;;;5053048;28;20578;-62
2021/09/24 02:38:08;;;;;;;4.03;3.13;;;16.10;96.30;;;;;;5050213;28;20021;-62
2021/09/24 02:40:33;;;;;;;6.50;4.57;;;16.20;96.30;;;;;;5032575;28;20392;-62
2021/09/24 02:42:59;;;;;;;9.57;6.13;;;16.20;96.40;;;;;;5050712;28;20091;-62
2021/09/24 02:45:25;;;;;;;9.13;7.18;;;16.10;96.40;;;;;;5050851;28;20377;-62
2021/09/24 02:47:50;;;;;;;7.90;6.88;;;16.10;96.60;;;;;;5051066;28;20484;-63
2021/09/24 02:50:16;;;;;;;10.38;7.10;;;16.10;96.70;;;;;;5053727;28;20430;-62
2021/09/24 02:52:42;;;;;;;10.25;6.80;;;16.10;96.80;;;;;;5046164;28;20112;-62
2021/09/24 02:55:08;;;;;;;10.40;7.35;;;16.10;96.80;;;;;;5050270;28;20562;-62
2021/09/24 02:57:33;;;;;;;11.40;8.25;;;16.00;96.90;;;;;;5053167;28;20631;-62
2021/09/24 02:59:59;;;;;;;13.60;7.57;;;16.10;96.90;;;;;;5051247;28;20027;-62
2021/09/24 03:02:25;;;;;;;14.60;8.82;;;16.10;96.90;;;;;;5052049;28;20025;-62
2021/09/24 03:04:50;;;;;;;13.80;10.68;;;16.10;97.00;;;;;;5037641;28;20079;-62
2021/09/24 03:07:16;;;;;;;14.63;10.57;;;16.00;97.10;;;;;;5054621;28;20103;-62
2021/09/24 03:09:41;;;;;;;14.45;9.75;;;16.10;97.30;;;;;;5057573;28;20031;-62
2021/09/24 03:12:07;;;;;;;14.27;12.13;;;16.00;97.30;;;;;;5054353;28;20523;-62
2021/09/24 03:14:33;;;;;;;19.10;12.98;;;16.00;97.50;;;;;;5054672;28;20522;-62
2021/09/24 03:16:59;;;;;;;18.45;13.35;;;16.00;97.50;;;;;;5054618;28;20021;-62
2021/09/24 03:19:24;;;;;;;23.58;16.45;;;16.00;97.60;;;;;;5054814;28;20075;-63
2021/09/24 03:21:50;;;;;;;22.38;16.08;;;16.00;97.70;;;;;;5056673;28;20079;-63
2021/09/24 03:24:17;;;;;;;26.25;18.90;;;15.90;97.90;;;;;;5056865;28;20365;-62
2021/09/24 03:26:43;;;;;;;30.85;19.35;;;15.90;98.20;;;;;;5058460;28;20024;-62
2021/09/24 03:29:09;;;;;;;28.90;19.50;;;15.80;98.40;;;;;;5049846;28;20533;-62
2021/09/24 03:31:40;;;;;;;29.95;20.65;;;15.90;98.50;;;;;;5053452;28;20078;-62
2021/09/24 03:34:06;;;;;;;27.60;19.60;;;15.90;98.60;;;;;;5052493;28;20104;-62
2021/09/24 03:36:34;;;;;;;31.15;20.52;;;15.80;98.70;;;;;;5053564;28;20056;-62
2021/09/24 03:39:00;;;;;;;31.27;21.63;;;15.80;98.80;;;;;;5055157;28;20010;-62
2021/09/24 03:41:25;;;;;;;38.10;25.00;;;15.80;99.00;;;;;;5050922;28;20025;-62
2021/09/24 03:43:51;;;;;;;29.30;19.73;;;15.80;99.10;;;;;;5051639;28;20068;-62
2021/09/24 03:46:16;;;;;;;28.40;19.30;;;15.80;99.10;;;;;;5056334;28;20021;-62
2021/09/24 03:48:42;;;;;;;29.90;19.13;;;15.80;99.10;;;;;;5052847;28;20029;-62
2021/09/24 03:51:07;;;;;;;25.00;18.67;;;15.80;99.10;;;;;;5056718;28;20041;-62
2021/09/24 03:53:33;;;;;;;22.40;17.90;;;15.90;99.10;;;;;;5057655;28;21081;-62
2021/09/24 03:55:59;;;;;;;26.33;17.88;;;15.90;99.00;;;;;;5055741;28;20519;-62
2021/09/24 03:58:25;;;;;;;25.65;18.63;;;15.90;99.00;;;;;;5050521;28;20013;-62
2021/09/24 04:00:51;;;;;;;32.22;21.40;;;15.90;99.00;;;;;;5052679;28;20500;-62
2021/09/24 04:03:17;;;;;;;35.20;22.17;;;15.90;99.00;;;;;;5058499;28;20025;-62
2021/09/24 04:05:43;;;;;;;31.15;22.23;;;15.90;99.10;;;;;;5056607;28;20021;-62
2021/09/24 04:08:08;;;;;;;35.20;22.88;;;15.90;99.10;;;;;;5039638;28;20020;-62
2021/09/24 04:10:34;;;;;;;34.45;20.80;;;15.90;99.20;;;;;;5049683;28;20112;-62
2021/09/24 04:13:00;;;;;;;32.95;22.27;;;15.90;99.30;;;;;;5053803;28;20623;-62
2021/09/24 04:15:25;;;;;;;39.92;24.50;;;15.90;99.30;;;;;;5053506;28;20017;-62
2021/09/24 04:17:51;;;;;;;34.42;23.58;;;16.00;99.40;;;;;;5052142;28;20025;-62
2021/09/24 04:20:16;;;;;;;39.40;24.85;;;16.00;99.60;;;;;;5060270;28;20021;-62
2021/09/24 04:22:42;;;;;;;43.72;27.45;;;16.00;99.70;;;;;;5053806;28;20068;-62
2021/09/24 04:25:08;;;;;;;39.35;24.92;;;16.00;99.90;;;;;;5037939;28;20039;-62
2021/09/24 04:27:34;;;;;;;40.80;26.25;;;16.00;99.90;;;;;;5055268;28;20481;-62
2021/09/24 04:29:59;;;;;;;38.40;25.92;;;16.00;99.90;;;;;;5056862;28;20070;-62
2021/09/24 04:32:25;;;;;;;43.38;27.85;;;16.00;99.90;;;;;;5051219;28;20481;-62
2021/09/24 04:34:50;;;;;;;48.58;27.80;;;16.00;99.90;;;;;;5047913;28;20430;-62
2021/09/24 04:37:16;;;;;;;45.58;28.55;;;16.00;99.90;;;;;;5051541;28;20032;-62
2021/09/24 04:39:41;;;;;;;46.70;28.23;;;16.10;99.90;;;;;;5047789;28;20021;-62
2021/09/24 04:42:07;;;;;;;46.58;26.42;;;16.00;99.90;;;;;;5050448;28;20389;-62
2021/09/24 04:44:33;;;;;;;43.22;26.83;;;16.10;99.90;;;;;;5051322;28;20032;-62
2021/09/24 04:46:59;;;;;;;40.55;25.25;;;16.10;99.90;;;;;;5048921;28;20024;-62
2021/09/24 04:49:24;;;;;;;52.45;29.35;;;16.10;99.90;;;;;;5056914;28;20070;-62
2021/09/24 04:51:50;;;;;;;47.65;28.33;;;16.10;99.90;;;;;;5052756;28;20052;-62
2021/09/24 04:54:16;;;;;;;48.38;28.45;;;16.10;99.90;;;;;;5037007;28;20048;-62
2021/09/24 04:56:42;;;;;;;52.35;28.98;;;16.10;99.90;;;;;;5031093;28;20064;-62
2021/09/24 04:59:08;;;;;;;55.25;32.20;;;16.10;99.90;;;;;;5050407;28;20082;-62
2021/09/24 05:01:33;;;;;;;48.58;28.48;;;16.10;99.90;;;;;;5051824;28;20179;-62
2021/09/24 05:03:59;;;;;;;47.15;27.85;;;16.10;99.90;;;;;;5052488;28;20021;-62
2021/09/24 05:06:25;;;;;;;60.78;33.70;;;16.10;99.90;;;;;;5055679;28;20047;-62
2021/09/24 05:08:50;;;;;;;50.47;31.13;;;16.10;99.90;;;;;;5053542;28;20087;-62
2021/09/24 05:11:16;;;;;;;52.42;30.27;;;16.10;99.90;;;;;;5055125;28;20028;-62
2021/09/24 05:13:41;;;;;;;55.13;34.38;;;16.10;99.90;;;;;;5050900;28;20495;-62
2021/09/24 05:16:07;;;;;;;57.22;33.28;;;16.10;99.90;;;;;;5054258;28;20384;-62
2021/09/24 05:18:32;;;;;;;61.85;34.05;;;16.10;99.90;;;;;;5052266;28;20025;-62
2021/09/24 05:20:58;;;;;;;55.20;33.20;;;16.10;99.90;;;;;;5033353;28;20017;-62
2021/09/24 05:23:24;;;;;;;51.92;32.38;;;16.10;99.90;;;;;;5050071;28;20028;-62
2021/09/24 05:25:49;;;;;;;62.83;36.25;;;16.10;99.90;;;;;;5052596;28;20025;-62
2021/09/24 05:28:15;;;;;;;55.53;32.15;;;16.10;99.90;;;;;;5052107;28;20064;-62
2021/09/24 05:30:41;;;;;;;68.35;38.15;;;16.10;99.90;;;;;;5034167;28;20028;-62
2021/09/24 05:33:06;;;;;;;65.97;33.92;;;16.10;99.90;;;;;;5052093;28;20028;-62
2021/09/24 05:35:32;;;;;;;55.42;34.60;;;16.10;99.90;;;;;;5052213;28;20373;-62
2021/09/24 05:37:57;;;;;;;61.22;36.97;;;16.10;99.90;;;;;;5039457;28;20033;-62
2021/09/24 05:40:23;;;;;;;63.42;37.28;;;16.20;99.90;;;;;;5051305;28;20021;-62
2021/09/24 05:42:50;;;;;;;61.17;36.10;;;16.20;99.90;;;;;;5053261;28;20052;-62
2021/09/24 05:45:16;;;;;;;55.70;32.60;;;16.10;99.90;;;;;;5053117;28;20023;-62
2021/09/24 05:47:42;;;;;;;51.13;32.17;;;16.20;99.90;;;;;;5052291;28;20111;-62
2021/09/24 05:50:12;;;;;;;60.45;33.90;;;16.20;99.90;;;;;;5036844;28;20026;-62
2021/09/24 05:52:44;;;;;;;56.38;31.80;;;16.20;99.90;;;;;;5039606;28;20033;-62
2021/09/24 05:55:10;;;;;;;52.30;31.48;;;16.20;99.90;;;;;;5039703;28;20447;-62
2021/09/24 05:57:36;;;;;;;50.40;31.23;;;16.20;99.90;;;;;;5033065;28;20022;-62
2021/09/24 06:00:05;;;;;;;51.22;33.03;;;16.20;99.90;;;;;;5015254;28;20021;-62
2021/09/24 06:02:30;;;;;;;50.75;30.67;;;16.20;99.90;;;;;;5032703;28;20026;-62
2021/09/24 06:04:56;;;;;;;58.65;34.75;;;16.20;99.90;;;;;;5032507;28;20022;-62
2021/09/24 06:07:22;;;;;;;54.35;34.63;;;16.20;99.90;;;;;;5021322;28;20029;-62
2021/09/24 06:09:47;;;;;;;55.95;34.97;;;16.20;99.90;;;;;;5032564;28;20029;-62
2021/09/24 06:12:13;;;;;;;53.38;35.72;;;16.20;99.90;;;;;;5032692;28;20037;-62
2021/09/24 06:14:38;;;;;;;57.22;35.33;;;16.20;99.90;;;;;;5032555;28;20025;-62
2021/09/24 06:17:04;;;;;;;57.03;34.10;;;16.10;99.90;;;;;;5032567;28;20080;-62
2021/09/24 06:19:29;;;;;;;56.03;33.30;;;16.20;99.90;;;;;;5009341;28;20458;-62
2021/09/24 06:21:55;;;;;;;61.45;35.70;;;16.20;99.90;;;;;;5024478;28;20117;-62
2021/09/24 06:24:20;;;;;;;60.78;34.90;;;16.20;99.90;;;;;;5014669;28;20036;-62
2021/09/24 06:26:46;;;;;;;54.42;35.13;;;16.20;99.90;;;;;;5014876;28;20048;-62
2021/09/24 06:29:11;;;;;;;60.22;35.35;;;16.20;99.90;;;;;;5014762;28;20502;-62
2021/09/24 06:31:37;;;;;;;60.88;35.88;;;16.20;99.90;;;;;;5032322;28;20033;-62
2021/09/24 06:34:02;;;;;;;64.53;39.10;;;16.20;99.90;;;;;;5032090;28;20083;-62
2021/09/24 06:36:28;;;;;;;64.18;37.38;;;16.20;99.90;;;;;;5031547;28;20017;-62
2021/09/24 06:38:53;;;;;;;64.35;36.33;;;16.20;99.90;;;;;;5031026;28;20028;-62
2021/09/24 06:41:19;;;;;;;64.07;37.22;;;16.20;99.90;;;;;;5014794;28;20025;-62
2021/09/24 06:43:44;;;;;;;66.20;36.47;;;16.20;99.90;;;;;;5032147;28;20026;-62
2021/09/24 06:46:10;;;;;;;67.80;37.33;;;16.20;99.90;;;;;;5032367;28;20072;-62
2021/09/24 06:48:36;;;;;;;69.65;37.40;;;16.20;99.90;;;;;;5032183;28;20104;-62
2021/09/24 06:51:02;;;;;;;58.97;32.28;;;16.20;99.90;;;;;;5032097;28;20045;-62
2021/09/24 06:53:28;;;;;;;81.15;39.90;;;16.30;99.90;;;;;;5031869;28;20079;-62
2021/09/24 06:55:57;;;;;;;71.30;37.60;;;16.30;99.90;;;;;;5031999;28;20033;-62
2021/09/24 06:58:23;;;;;;;74.30;38.33;;;16.30;99.90;;;;;;5032393;28;20533;-62
2021/09/24 07:00:49;;;;;;;69.18;36.55;;;16.30;99.90;;;;;;5000212;28;20026;-62
2021/09/24 07:03:14;;;;;;;78.55;38.20;;;16.40;99.90;;;;;;5032335;28;20018;-62
2021/09/24 07:05:40;;;;;;;87.90;41.83;;;16.40;99.90;;;;;;5031495;28;20448;-62
2021/09/24 07:08:05;;;;;;;79.72;36.45;;;16.40;99.90;;;;;;5031622;28;20037;-62
2021/09/24 07:10:31;;;;;;;72.45;35.22;;;16.40;99.90;;;;;;5032211;28;20017;-62
2021/09/24 07:12:56;;;;;;;69.88;34.28;;;16.40;99.90;;;;;;5032236;28;20032;-62
2021/09/24 07:15:22;;;;;;;84.22;40.13;;;16.40;99.90;;;;;;5031402;28;20433;-62
2021/09/24 07:17:47;;;;;;;83.70;41.72;;;16.50;99.90;;;;;;5031495;28;20025;-62
2021/09/24 07:20:13;;;;;;;92.15;42.67;;;16.40;99.90;;;;;;5031802;28;20021;-67
2021/09/24 07:22:38;;;;;;;78.72;38.63;;;16.40;99.90;;;;;;5008112;28;20516;-63
2021/09/24 07:25:05;;;;;;;74.28;37.83;;;16.50;99.90;;;;;;5008689;28;20065;-62
2021/09/24 07:27:31;;;;;;;73.20;35.92;;;16.50;99.90;;;;;;5030000;28;20120;-62
2021/09/24 07:29:56;;;;;;;76.93;38.28;;;16.60;99.90;;;;;;5021342;28;20097;-62
2021/09/24 07:32:22;;;;;;;81.00;39.67;;;16.60;99.90;;;;;;5026266;28;20105;-62
2021/09/24 07:34:47;;;;;;;71.28;35.83;;;16.60;99.90;;;;;;5031716;28;20060;-62
2021/09/24 07:37:13;;;;;;;73.60;36.67;;;16.60;99.90;;;;;;5031709;28;20109;-62
2021/09/24 07:39:39;;;;;;;78.68;39.47;;;16.60;99.90;;;;;;5010374;28;20072;-62
2021/09/24 07:42:05;;;;;;;75.43;38.97;;;16.70;99.90;;;;;;5020569;28;20022;-62
2021/09/24 07:44:31;;;;;;;88.93;41.63;;;16.70;99.90;;;;;;5009500;28;20398;-62
2021/09/24 07:46:56;;;;;;;81.10;41.05;;;16.70;99.90;;;;;;5030057;28;20091;-62
2021/09/24 07:49:22;;;;;;;84.00;41.08;;;16.80;99.90;;;;;;5009728;28;20098;-62
2021/09/24 07:51:47;;;;;;;73.25;38.03;;;16.80;99.90;;;;;;5021986;28;20493;-62
2021/09/24 07:54:13;;;;;;;71.18;36.63;;;16.90;99.90;;;;;;5017209;28;20013;-62
2021/09/24 07:56:38;;;;;;;73.22;40.75;;;16.90;99.90;;;;;;5050392;28;20041;-62
2021/09/24 07:59:04;;;;;;;66.85;36.92;;;17.00;99.90;;;;;;5050973;28;20052;-62
2021/09/24 08:01:29;;;;;;;70.22;38.55;;;17.00;99.90;;;;;;5031167;28;20029;-64
2021/09/24 08:03:55;;;;;;;59.30;33.80;;;17.10;99.90;;;;;;5046568;28;20025;-62
2021/09/24 08:06:21;;;;;;;66.38;35.03;;;17.20;99.90;;;;;;5050642;28;20029;-63
2021/09/24 08:08:47;;;;;;;62.72;33.58;;;17.30;99.90;;;;;;5047830;28;20409;-63
2021/09/24 08:11:13;;;;;;;59.60;35.15;;;17.40;99.90;;;;;;5046604;28;20053;-63
2021/09/24 08:13:41;;;;;;;55.67;33.45;;;17.50;99.90;;;;;;5032722;28;20052;-63
2021/09/24 08:16:07;;;;;;;55.38;31.20;;;17.60;99.90;;;;;;5053303;28;20029;-63
2021/09/24 08:18:32;;;;;;;48.08;30.33;;;17.70;99.90;;;;;;5050730;28;20021;-63
2021/09/24 08:20:59;;;;;;;51.45;32.35;;;17.80;99.90;;;;;;5050631;28;20495;-63
2021/09/24 08:23:25;;;;;;;53.85;35.15;;;17.80;99.90;;;;;;5050354;28;20017;-63
2021/09/24 08:25:50;;;;;;;53.53;33.25;;;17.90;99.90;;;;;;5050240;28;20104;-63
2021/09/24 08:28:16;;;;;;;55.55;35.20;;;18.00;99.90;;;;;;5050168;28;20703;-63
2021/09/24 08:30:42;;;;;;;47.60;32.15;;;18.10;99.90;;;;;;5046043;28;20033;-63
2021/09/24 08:33:09;;;;;;;51.78;31.88;;;18.10;99.90;;;;;;5034503;28;20083;-63
2021/09/24 08:35:34;;;;;;;50.38;33.17;;;18.10;99.90;;;;;;5046099;28;20449;-63
2021/09/24 08:38:00;;;;;;;47.38;32.33;;;18.20;99.90;;;;;;5047979;28;20507;-64
2021/09/24 08:40:28;;;;;;;45.45;32.92;;;18.20;99.90;;;;;;5049698;28;20025;-63
2021/09/24 08:42:54;;;;;;;48.17;32.10;;;18.20;99.80;;;;;;5032366;28;20027;-63
2021/09/24 08:45:28;;;;;;;41.55;29.90;;;18.20;99.70;;;;;;5032168;28;20025;-64
2021/09/24 08:48:02;;;;;;;44.63;30.75;;;18.20;99.50;;;;;;5050085;28;20028;-63
2021/09/24 08:50:29;;;;;;;42.20;27.90;;;18.30;99.30;;;;;;5049315;28;20055;-63
2021/09/24 08:52:56;;;;;;;38.90;27.50;;;18.30;99.20;;;;;;5052497;28;20029;-63
2021/09/24 08:55:22;;;;;;;39.22;26.83;;;18.30;99.10;;;;;;5033215;28;20581;-64
2021/09/24 08:57:48;;;;;;;38.22;26.02;;;18.40;98.80;;;;;;5023589;28;20029;-64
2021/09/24 09:00:14;;;;;;;39.60;26.42;;;18.40;98.70;;;;;;5039353;28;20083;-63
2021/09/24 09:02:59;;;;;;;37.25;25.83;;;18.50;98.60;;;;;;5030278;28;20083;-64
2021/09/24 09:05:27;;;;;;;34.95;26.48;;;18.50;98.40;;;;;;5048759;28;20059;-64
2021/09/24 09:08:15;;;;;;;34.97;25.13;;;18.60;98.20;;;;;;5040166;28;20028;-64
2021/09/24 09:10:49;;;;;;;35.85;23.65;;;18.70;98.00;;;;;;5006454;28;20037;-64
2021/09/24 09:13:15;;;;;;;36.85;26.20;;;18.70;97.90;;;;;;5025315;28;20797;-64
2021/09/24 09:15:51;;;;;;;33.95;24.33;;;18.70;97.60;;;;;;5045899;28;20075;-64
2021/09/24 09:18:18;;;;;;;29.50;23.23;;;18.80;97.40;;;;;;5052806;28;20059;-64
2021/09/24 09:20:47;;;;;;;36.97;23.80;;;18.80;97.30;;;;;;5035706;28;20017;-64
2021/09/24 09:23:13;;;;;;;28.33;22.42;;;18.90;97.40;;;;;;5053012;28;20025;-64
2021/09/24 09:25:42;;;;;;;30.88;21.98;;;19.00;97.00;;;;;;5052220;28;20385;-64
2021/09/24 09:28:16;;;;;;;26.08;21.15;;;19.10;96.80;;;;;;5040824;28;20026;-64
2021/09/24 09:30:45;;;;;;;30.70;22.48;;;19.20;96.50;;;;;;5039923;28;20033;-64
2021/09/24 09:33:17;;;;;;;31.92;23.50;;;19.30;96.30;;;;;;5053291;28;20053;-64
2021/09/24 09:35:47;;;;;;;28.98;23.33;;;19.30;96.00;;;;;;5053294;28;20017;-64
2021/09/24 09:38:23;;;;;;;30.17;20.73;;;19.40;95.70;;;;;;5053508;28;20028;-64
2021/09/24 09:40:52;;;;;;;23.17;19.63;;;19.60;95.30;;;;;;5052993;28;20106;-64
2021/09/24 09:43:23;;;;;;;21.27;18.13;;;19.70;95.00;;;;;;5053287;28;20017;-64
2021/09/24 09:45:49;;;;;;;21.30;17.70;;;19.80;94.50;;;;;;5038372;28;20036;-64
2021/09/24 09:48:15;;;;;;;21.08;15.60;;;19.80;94.20;;;;;;5042781;28;20021;-64
2021/09/24 09:50:41;;;;;;;20.10;16.33;;;19.90;94.10;;;;;;5049227;28;20388;-64
2021/09/24 09:53:12;;;;;;;21.88;15.90;;;20.00;93.70;;;;;;5053142;28;20021;-64
2021/09/24 09:55:41;;;;;;;18.63;16.23;;;20.10;93.50;;;;;;5034791;28;20049;-64
2021/09/24 09:58:10;;;;;;;18.65;15.07;;;20.20;93.10;;;;;;5035116;28;20017;-64
2021/09/24 10:00:52;;;;;;;17.77;15.05;;;20.40;92.90;;;;;;5052752;28;20426;-64
2021/09/24 10:03:32;;;;;;;17.38;14.05;;;20.50;92.60;;;;;;5050709;28;20025;-64
2021/09/24 10:05:57;;;;;;;;;;;20.70;92.20;;;;;;5043347;28;20430;-64
2021/09/24 10:08:32;;;;;;;16.42;13.38;;;20.70;92.10;;;;;;5048778;28;20399;-64
2021/09/24 10:11:13;;;;;;;19.10;15.30;;;20.80;92.00;;;;;;5042802;28;20096;-64
2021/09/24 10:13:57;;;;;;;21.60;18.80;;;21.00;91.70;;;;;;5045193;28;20033;-64
2021/09/24 10:16:30;;;;;;;22.25;18.05;;;21.00;91.30;;;;;;5047909;28;20380;-64
2021/09/24 10:18:56;;;;;;;20.52;18.33;;;20.90;91.10;;;;;;5043088;28;20052;-64
2021/09/24 10:21:22;;;;;;;22.98;20.50;;;20.80;90.80;;;;;;5049568;28;20106;-65
2021/09/24 10:23:48;;;;;;;20.08;17.73;;;20.80;90.70;;;;;;5051239;28;20024;-64
2021/09/24 10:26:22;;;;;;;20.08;16.83;;;20.70;90.60;;;;;;5049120;28;20021;-64
2021/09/24 10:28:48;;;;;;;19.08;16.48;;;20.70;90.60;;;;;;5051471;28;20032;-64
2021/09/24 10:31:17;;;;;;;17.27;14.82;;;20.80;90.40;;;;;;5051574;28;20025;-64
2021/09/24 10:33:48;;;;;;;16.52;13.63;;;20.90;90.50;;;;;;5051368;28;20024;-64
2021/09/24 10:36:33;;;;;;;16.10;14.40;;;21.20;90.50;;;;;;5046373;28;20032;-64
2021/09/24 10:38:59;;;;;;;20.02;17.98;;;21.50;90.00;;;;;;5052424;28;20013;-64
2021/09/24 10:41:25;;;;;;;24.92;20.73;;;21.70;89.80;;;;;;5052142;28;20017;-64
2021/09/24 10:43:52;;;;;;;22.00;19.77;;;22.30;89.30;;;;;;5047331;28;20054;-64
2021/09/24 10:46:23;;;;;;;28.58;22.80;;;22.60;87.10;;;;;;5043583;28;20028;-64
2021/09/24 10:49:09;;;;;;;25.92;23.23;;;22.40;86.00;;;;;;5047904;28;20385;-64
2021/09/24 10:51:37;;;;;;;24.65;20.42;;;22.30;86.20;;;;;;5026754;28;20112;-64
2021/09/24 10:54:15;;;;;;;21.90;17.08;;;23.30;84.30;;;;;;5050350;28;20024;-64
2021/09/24 10:56:58;;;;;;;19.80;17.30;;;23.80;83.00;;;;;;5030669;28;20033;-64
2021/09/24 10:59:29;;;;;;;18.95;16.90;;;25.10;80.80;;;;;;5003607;28;20025;-64
2021/09/24 11:01:56;;;;;;;16.00;14.27;;;26.00;75.60;;;;;;5046561;28;20366;-64
2021/09/24 11:04:41;;;;;;;14.23;12.77;;;27.00;73.00;;;;;;5049966;28;20451;-65
2021/09/24 11:07:07;;;;;;;13.07;11.73;;;28.70;70.20;;;;;;5045273;28;20029;-64
2021/09/24 11:09:32;;;;;;;15.77;13.93;;;29.80;66.40;;;;;;5044799;28;20083;-65
2021/09/24 11:12:03;;;;;;;14.48;12.60;;;29.00;62.90;;;;;;5045076;28;20031;-65
2021/09/24 11:14:33;;;;;;;15.63;14.02;;;29.30;62.90;;;;;;5044088;28;20041;-65
2021/09/24 11:17:00;;;;;;;12.93;11.60;;;28.80;61.90;;;;;;5050310;28;20025;-65
2021/09/24 11:19:41;;;;;;;14.10;12.70;;;28.70;62.30;;;;;;5024543;28;20481;-64
2021/09/24 11:22:37;;;;;;;15.43;13.73;;;27.80;61.70;;;;;;5049122;28;20029;-64
2021/09/24 11:25:05;;;;;;;13.60;12.23;;;26.90;63.60;;;;;;5044183;28;20029;-64
2021/09/24 11:27:36;;;;;;;14.35;12.88;;;26.10;65.00;;;;;;5053665;28;20017;-64
2021/09/24 11:30:02;;;;;;;12.57;11.27;;;25.90;65.90;;;;;;5035875;28;20070;-64
2021/09/24 11:32:33;;;;;;;11.75;10.55;;;26.40;65.80;;;;;;5053632;28;20029;-64
2021/09/24 11:34:59;;;;;;;11.88;10.23;;;27.00;64.00;;;;;;5046757;28;20024;-64
2021/09/24 11:37:30;;;;;;;10.88;9.20;;;26.90;62.80;;;;;;5053265;28;20024;-64
2021/09/24 11:40:04;;;;;;;8.80;7.90;;;27.30;61.40;;;;;;5047527;28;20009;-64
2021/09/24 11:42:33;;;;;;;8.18;7.18;;;26.70;61.20;;;;;;5051381;28;20467;-64
2021/09/24 11:45:00;;;;;;;7.07;6.38;;;26.50;62.30;;;;;;5046165;28;20513;-64
2021/09/24 11:47:32;;;;;;;7.03;6.28;;;26.30;62.50;;;;;;5044654;28;20108;-64
2021/09/24 11:50:04;;;;;;;6.93;6.22;;;26.10;63.50;;;;;;5035542;28;20025;-64
2021/09/24 11:52:39;;;;;;;7.32;5.78;;;26.60;63.70;;;;;;5034501;28;20027;-64
2021/09/24 11:55:22;;;;;;;5.68;4.03;;;27.60;61.70;;;;;;5053684;28;20493;-65
2021/09/24 11:58:04;;;;;;;8.70;6.30;;;28.30;60.20;;;;;;5049722;28;20045;-64
2021/09/24 12:00:46;;;;;;;7.80;6.63;;;27.90;59.10;;;;;;5044444;28;20051;-64
2021/09/24 12:03:27;;;;;;;6.88;6.15;;;27.80;59.90;;;;;;5054963;28;20059;-64
2021/09/24 12:06:05;;;;;;;9.25;7.28;;;27.40;59.90;;;;;;5054804;28;20021;-64
2021/09/24 12:08:32;;;;;;;10.30;8.68;;;27.20;61.30;;;;;;5022836;28;20040;-64
2021/09/24 12:11:04;;;;;;;7.97;7.03;;;27.50;60.40;;;;;;5054257;28;20041;-64
2021/09/24 12:13:48;;;;;;;7.50;5.70;;;27.60;61.10;;;;;;5048571;28;20052;-64
2021/09/24 12:16:22;;;;;;;9.07;7.07;;;28.30;60.60;;;;;;5033170;28;20079;-64
2021/09/24 12:18:49;;;;;;;7.80;5.95;;;28.00;59.00;;;;;;5020325;28;20033;-64
2021/09/24 12:21:18;;;;;;;6.90;5.15;;;27.40;59.60;;;;;;5029380;28;20544;-64
2021/09/24 12:23:44;;;;;;;5.85;5.20;;;26.90;61.10;;;;;;5025918;28;20033;-64
2021/09/24 12:26:11;;;;;;;7.25;5.68;;;27.10;62.10;;;;;;5028491;28;20484;-64
2021/09/24 12:28:38;;;;;;;9.27;7.00;;;27.00;61.30;;;;;;5048660;28;20044;-64
2021/09/24 12:31:04;;;;;;;5.22;4.72;;;27.20;61.10;;;;;;5052165;28;20025;-64
2021/09/24 12:33:30;;;;;;;5.78;4.70;;;27.50;61.10;;;;;;5048906;28;20029;-64